Rifton, New York
Current Conditions -  °F | °C
As of 11:06 PM on Saturday 20 Dec 2014 (Local Time) from KPOU Reporting Station
Overcast Overcast  
Wind Chill: 30°   Ceiling: 3000
Heat Index: 30°   Visibility: 10mi
Dew Point: 21°   Wind: 0mph
Humidity: 69%   Direction: NA
Pressure: 30.29"   Gusts: NA
Location:  41.84°N, 74.04°W
Report Text: KPOU 210406Z AUTO 00000KT 10SM BKN030 OVC035 M01/M06 A3029 RMK AO2 T10111061 TSNO
Loading
Personal Weather Stations






























Interactive Weather Map New forecast layout! Learn more

10-Day Weather Forecast

Advertisements
Track Severe Weather on mobile